Terminal Aerodrome Forecast
Issued by NWS Louisville, KY

Home | Current Version | Previous Version | Text Only | Print | Product List | Glossary On
Versions: 1 2 3 4 5 6 7 8 9 10 11 12 13 14 15 16 17
000
FTUS43 KLMK 192055 AAB
TAFLEX
TAF AMD
KLEX 192055Z 1921/2018 23010G17KT P6SM VCSH BKN050
     FM200000 24008KT P6SM FEW050 SCT250
     FM200800 19004KT 3SM BR BKN150
     FM201400 21008KT P6SM SCT050 BKN250=

USA.gov is the U.S. government's official web portal to all federal, state and local government web resources and services.